createdAt,value
2024-01-21T00:00:51.802Z,0.80
2024-01-21T00:01:51.109Z,0.82
2024-01-21T00:02:51.748Z,0.80
2024-01-21T00:03:51.548Z,0.82
2024-01-21T00:04:51.426Z,0.82
2024-01-21T00:05:54.608Z,0.80
2024-01-21T00:06:54.543Z,0.80
2024-01-21T00:07:51.765Z,0.80
2024-01-21T00:08:54.851Z,0.79
2024-01-21T00:09:55.028Z,0.79
2024-01-21T00:10:59.793Z,0.78
2024-01-21T00:11:52.037Z,0.76
2024-01-21T00:12:53.642Z,0.75
2024-01-21T00:13:57.176Z,0.72
2024-01-21T00:14:55.476Z,0.68
2024-01-21T00:15:55.524Z,0.67
2024-01-21T00:16:56.641Z,0.64
2024-01-21T00:17:56.388Z,0.64
2024-01-21T00:18:53.647Z,0.60
2024-01-21T00:19:57.541Z,0.58
2024-01-21T00:20:52.117Z,0.53
2024-01-21T00:21:51.064Z,0.53
2024-01-21T00:22:51.682Z,0.52
2024-01-21T00:23:59.869Z,0.52
2024-01-21T00:24:51.971Z,0.51
2024-01-21T00:25:54.685Z,0.48
2024-01-21T00:26:53.137Z,0.46
2024-01-21T00:28:00.682Z,0.41
2024-01-21T00:28:52.422Z,0.39
2024-01-21T00:29:51.020Z,0.39
2024-01-21T00:30:51.153Z,0.41
2024-01-21T00:31:51.414Z,0.39
2024-01-21T00:32:51.781Z,0.36
2024-01-21T00:33:51.781Z,0.36
2024-01-21T00:34:50.698Z,0.34
2024-01-21T00:35:50.593Z,0.34
2024-01-21T00:36:50.889Z,0.31
2024-01-21T00:37:50.763Z,0.31
2024-01-21T00:38:50.643Z,0.30
2024-01-21T00:39:50.693Z,0.27
2024-01-21T00:40:51.024Z,0.23
2024-01-21T00:41:58.193Z,0.16
2024-01-21T00:42:51.509Z,0.13
2024-01-21T00:43:50.478Z,0.07
2024-01-21T00:44:50.825Z,0.06
2024-01-21T00:45:50.473Z,0.03
2024-01-21T00:46:50.631Z,0.00
2024-01-21T00:47:50.287Z,0.00
2024-01-21T00:48:50.388Z,-0.04
2024-01-21T00:49:50.381Z,-0.11
2024-01-21T00:50:50.278Z,-0.12
2024-01-21T00:51:50.265Z,-0.12
2024-01-21T00:52:50.198Z,-0.13
2024-01-21T00:53:50.193Z,-0.13
2024-01-21T00:54:50.329Z,-0.15
2024-01-21T00:55:50.189Z,-0.15
2024-01-21T00:56:50.391Z,-0.15
2024-01-21T00:57:50.645Z,-0.13
2024-01-21T00:58:50.215Z,-0.12
2024-01-21T00:59:50.197Z,-0.12
2024-01-21T01:00:50.287Z,-0.13
2024-01-21T01:01:50.195Z,-0.12
2024-01-21T01:02:50.277Z,-0.12
2024-01-21T01:03:50.114Z,-0.11
2024-01-21T01:04:50.318Z,-0.13
2024-01-21T01:05:50.018Z,-0.12
2024-01-21T01:06:50.098Z,-0.13
2024-01-21T01:07:50.037Z,-0.13
2024-01-21T01:08:49.996Z,-0.13
2024-01-21T01:09:50.065Z,-0.12
2024-01-21T01:10:50.122Z,-0.09
2024-01-21T01:11:50.260Z,-0.11
2024-01-21T01:12:50.049Z,-0.11
2024-01-21T01:13:50.136Z,-0.08
2024-01-21T01:14:49.911Z,-0.04
2024-01-21T01:15:50.233Z,0.00
2024-01-21T01:16:49.957Z,0.03
2024-01-21T01:17:50.126Z,0.03
2024-01-21T01:18:50.157Z,-0.01
2024-01-21T01:19:50.232Z,-0.01
2024-01-21T01:20:49.994Z,-0.05
2024-01-21T01:21:49.967Z,-0.09
2024-01-21T01:22:49.845Z,-0.13
2024-01-21T01:23:50.158Z,-0.13
2024-01-21T01:24:49.924Z,-0.16
2024-01-21T01:25:49.791Z,-0.22
2024-01-21T01:26:49.726Z,-0.24
2024-01-21T01:27:49.986Z,-0.30
2024-01-21T01:28:49.714Z,-0.34
2024-01-21T01:29:49.801Z,-0.39
2024-01-21T01:30:49.823Z,-0.42
2024-01-21T01:31:49.694Z,-0.44
2024-01-21T01:32:49.844Z,-0.45
2024-01-21T01:33:49.808Z,-0.48
2024-01-21T01:34:49.814Z,-0.50
2024-01-21T01:35:49.624Z,-0.52
2024-01-21T01:36:49.841Z,-0.55
2024-01-21T01:37:49.616Z,-0.54
2024-01-21T01:38:49.633Z,-0.57
2024-01-21T01:39:49.801Z,-0.60
2024-01-21T01:40:49.683Z,-0.68
2024-01-21T01:41:49.548Z,-0.69
2024-01-21T01:42:49.618Z,-0.72
2024-01-21T01:43:49.685Z,-0.72
2024-01-21T01:44:49.509Z,-0.72
2024-01-21T01:45:49.746Z,-0.69
2024-01-21T01:46:49.527Z,-0.66
2024-01-21T01:47:49.650Z,-0.62
2024-01-21T01:48:49.590Z,-0.60
2024-01-21T01:49:49.623Z,-0.54
2024-01-21T01:50:49.551Z,-0.51
2024-01-21T01:51:49.834Z,-0.45
2024-01-21T01:52:49.481Z,-0.45
2024-01-21T01:53:49.437Z,-0.39
2024-01-21T01:54:49.615Z,-0.37
2024-01-21T01:55:49.369Z,-0.33
2024-01-21T01:56:49.373Z,-0.30
2024-01-21T01:57:49.446Z,-0.26
2024-01-21T01:58:49.298Z,-0.19
2024-01-21T01:59:49.392Z,-0.15
2024-01-21T02:00:49.523Z,-0.11
2024-01-21T02:01:49.415Z,-0.06
2024-01-21T02:02:49.314Z,0.00
2024-01-21T02:03:49.302Z,0.03
2024-01-21T02:04:49.205Z,0.06
2024-01-21T02:05:49.248Z,0.09
2024-01-21T02:06:49.278Z,0.12
2024-01-21T02:07:49.379Z,0.12
2024-01-21T02:08:49.625Z,0.15
2024-01-21T02:09:49.350Z,0.15
2024-01-21T02:10:49.157Z,0.15
2024-01-21T02:11:49.361Z,0.16
2024-01-21T02:12:49.323Z,0.18
2024-01-21T02:13:49.198Z,0.18
2024-01-21T02:14:49.310Z,0.16
2024-01-21T02:15:49.206Z,0.18
2024-01-21T02:16:49.249Z,0.16
2024-01-21T02:17:49.279Z,0.16
2024-01-21T02:18:49.250Z,0.16
2024-01-21T02:19:49.225Z,0.20
2024-01-21T02:20:49.153Z,0.18
2024-01-21T02:21:49.325Z,0.18
2024-01-21T02:22:49.066Z,0.21
2024-01-21T02:23:49.015Z,0.23
2024-01-21T02:24:49.152Z,0.20
2024-01-21T02:25:49.212Z,0.25
2024-01-21T02:26:49.138Z,0.25
2024-01-21T02:27:49.116Z,0.24
2024-01-21T02:28:49.168Z,0.24
2024-01-21T02:29:49.139Z,0.25
2024-01-21T02:30:49.164Z,0.24
2024-01-21T02:31:49.330Z,0.24
2024-01-21T02:32:49.056Z,0.21
2024-01-21T02:33:48.916Z,0.20
2024-01-21T02:34:49.084Z,0.20
2024-01-21T02:35:49.609Z,0.18
2024-01-21T02:36:48.976Z,0.20
2024-01-21T02:37:48.887Z,0.21
2024-01-21T02:38:48.834Z,0.24
2024-01-21T02:39:48.833Z,0.25
2024-01-21T02:40:49.272Z,0.27
2024-01-21T02:41:48.767Z,0.27
2024-01-21T02:42:48.785Z,0.30
2024-01-21T02:43:48.761Z,0.31
2024-01-21T02:44:49.184Z,0.33
2024-01-21T02:45:49.508Z,0.31
2024-01-21T02:46:49.319Z,0.34
2024-01-21T02:47:48.746Z,0.34
2024-01-21T02:48:48.789Z,0.33
2024-01-21T02:49:48.874Z,0.31
2024-01-21T02:50:48.828Z,0.30
2024-01-21T02:51:48.739Z,0.28
2024-01-21T02:52:48.842Z,0.28
2024-01-21T02:53:48.813Z,0.27
2024-01-21T02:54:48.812Z,0.28
2024-01-21T02:55:48.690Z,0.28
2024-01-21T02:56:48.545Z,0.27
2024-01-21T02:57:50.761Z,0.28
2024-01-21T02:58:48.579Z,0.28
2024-01-21T02:59:48.853Z,0.28
2024-01-21T03:00:48.945Z,0.28
2024-01-21T03:01:48.466Z,0.28
2024-01-21T03:02:48.519Z,0.27
2024-01-21T03:03:48.534Z,0.25
2024-01-21T03:04:48.563Z,0.25
2024-01-21T03:05:48.493Z,0.25
2024-01-21T03:06:48.551Z,0.25
2024-01-21T03:07:48.523Z,0.24
2024-01-21T03:08:48.408Z,0.24
2024-01-21T03:09:48.568Z,0.23
2024-01-21T03:10:48.859Z,0.20
2024-01-21T03:11:48.428Z,0.20
2024-01-21T03:12:48.438Z,0.18
2024-01-21T03:13:48.446Z,0.18
2024-01-21T03:14:48.425Z,0.16
2024-01-21T03:15:48.341Z,0.13
2024-01-21T03:16:48.364Z,0.12
2024-01-21T03:17:48.272Z,0.12
2024-01-21T03:18:48.420Z,0.12
2024-01-21T03:19:48.524Z,0.13
2024-01-21T03:20:48.278Z,0.12
2024-01-21T03:21:48.316Z,0.12
2024-01-21T03:22:48.207Z,0.10
2024-01-21T03:23:48.221Z,0.15
2024-01-21T03:24:48.281Z,0.20
2024-01-21T03:25:48.278Z,0.21
2024-01-21T03:26:48.243Z,0.23
2024-01-21T03:27:49.968Z,0.21
2024-01-21T03:28:48.200Z,0.23
2024-01-21T03:29:48.539Z,0.20
2024-01-21T03:30:48.240Z,0.18
2024-01-21T03:31:48.073Z,0.16
2024-01-21T03:32:48.085Z,0.16
2024-01-21T03:33:48.488Z,0.16
2024-01-21T03:34:48.106Z,0.18
2024-01-21T03:35:48.066Z,0.20
2024-01-21T03:36:48.228Z,0.20
2024-01-21T03:37:48.112Z,0.18
2024-01-21T03:38:47.962Z,0.20
2024-01-21T03:39:48.251Z,0.16
2024-01-21T03:40:47.949Z,0.13
2024-01-21T03:41:47.880Z,0.09
2024-01-21T03:42:47.923Z,0.09
2024-01-21T03:43:47.917Z,0.03
2024-01-21T03:44:47.901Z,0.00
2024-01-21T03:45:47.871Z,-0.05
2024-01-21T03:46:47.855Z,-0.11
2024-01-21T03:47:47.858Z,-0.15
2024-01-21T03:48:47.898Z,-0.18
2024-01-21T03:49:47.980Z,-0.18
2024-01-21T03:50:47.897Z,-0.23
2024-01-21T03:51:47.894Z,-0.26
2024-01-21T03:52:47.800Z,-0.29
2024-01-21T03:53:47.812Z,-0.27
2024-01-21T03:54:47.903Z,-0.29
2024-01-21T03:55:47.741Z,-0.31
2024-01-21T03:56:47.717Z,-0.31
2024-01-21T03:57:47.692Z,-0.36
2024-01-21T03:58:47.716Z,-0.31
2024-01-21T03:59:47.813Z,-0.33
2024-01-21T04:00:47.675Z,-0.30
2024-01-21T04:01:47.754Z,-0.31
2024-01-21T04:02:47.611Z,-0.34
2024-01-21T04:03:48.042Z,-0.37
2024-01-21T04:04:47.644Z,-0.37
2024-01-21T04:05:47.671Z,-0.36
2024-01-21T04:06:47.611Z,-0.34
2024-01-21T04:07:47.715Z,-0.30
2024-01-21T04:08:47.666Z,-0.27
2024-01-21T04:09:47.557Z,-0.24
2024-01-21T04:10:47.606Z,-0.19
2024-01-21T04:11:47.562Z,-0.18
2024-01-21T04:12:47.500Z,-0.13
2024-01-21T04:13:47.509Z,-0.11
2024-01-21T04:14:47.586Z,-0.09
2024-01-21T04:15:47.544Z,-0.04
2024-01-21T04:16:47.550Z,0.00
2024-01-21T04:17:47.486Z,0.03
2024-01-21T04:18:47.613Z,0.05
2024-01-21T04:19:47.479Z,0.05
2024-01-21T04:20:47.358Z,0.02
2024-01-21T04:21:47.466Z,0.03
2024-01-21T04:22:47.336Z,0.07
2024-01-21T04:23:47.330Z,0.12
2024-01-21T04:24:47.407Z,0.16
2024-01-21T04:25:47.412Z,0.20
2024-01-21T04:26:47.271Z,0.21
2024-01-21T04:27:47.331Z,0.24
2024-01-21T04:28:47.277Z,0.25
2024-01-21T04:29:47.227Z,0.27
2024-01-21T04:30:47.325Z,0.25
2024-01-21T04:31:47.210Z,0.25
2024-01-21T04:32:47.310Z,0.28
2024-01-21T04:33:47.276Z,0.27
2024-01-21T04:34:47.389Z,0.28
2024-01-21T04:35:47.182Z,0.30
2024-01-21T04:36:47.239Z,0.31
2024-01-21T04:37:47.304Z,0.30
2024-01-21T04:38:47.291Z,0.30
2024-01-21T04:39:47.127Z,0.31
2024-01-21T04:40:47.261Z,0.33
2024-01-21T04:41:47.072Z,0.33
2024-01-21T04:42:47.140Z,0.31
2024-01-21T04:43:47.279Z,0.30
2024-01-21T04:44:47.549Z,0.28
2024-01-21T04:45:47.094Z,0.28
2024-01-21T04:46:47.014Z,0.30
2024-01-21T04:47:47.641Z,0.28
2024-01-21T04:48:48.148Z,0.30
2024-01-21T04:49:47.088Z,0.31
2024-01-21T04:50:47.329Z,0.31
2024-01-21T04:51:51.474Z,0.33
2024-01-21T04:52:50.950Z,0.38
2024-01-21T04:53:48.638Z,0.41
2024-01-21T04:54:49.109Z,0.42
2024-01-21T04:55:47.837Z,0.45
2024-01-21T04:56:47.697Z,0.48
2024-01-21T04:57:47.441Z,0.48
2024-01-21T04:58:47.589Z,0.51
2024-01-21T04:59:50.618Z,0.53
2024-01-21T05:00:48.268Z,0.58
2024-01-21T05:01:51.142Z,0.60
2024-01-21T05:02:50.451Z,0.61
2024-01-21T05:03:48.193Z,0.62
2024-01-21T05:04:47.114Z,0.62
2024-01-21T05:05:53.779Z,0.67
2024-01-21T05:06:48.214Z,0.67
2024-01-21T05:07:57.301Z,0.71
2024-01-21T05:08:47.876Z,0.72
2024-01-21T05:09:47.455Z,0.76
2024-01-21T05:10:47.542Z,0.79
2024-01-21T05:11:51.213Z,0.80
2024-01-21T05:12:48.694Z,0.83
2024-01-21T05:13:51.866Z,0.85
2024-01-21T05:14:48.537Z,0.86
2024-01-21T05:15:47.034Z,0.88
2024-01-21T05:16:48.597Z,0.88
2024-01-21T05:17:47.467Z,0.88
2024-01-21T05:18:47.700Z,0.89
2024-01-21T05:19:51.930Z,0.89
2024-01-21T05:20:48.512Z,0.92
2024-01-21T05:21:48.634Z,0.94
2024-01-21T05:22:48.943Z,0.94
2024-01-21T05:23:47.301Z,0.94
2024-01-21T05:24:47.561Z,0.96
2024-01-21T05:25:46.984Z,0.96
2024-01-21T05:26:46.516Z,0.96
2024-01-21T05:27:49.191Z,0.97
2024-01-21T05:28:46.727Z,0.98
2024-01-21T05:29:46.563Z,0.98
2024-01-21T05:30:47.933Z,0.98
2024-01-21T05:31:48.835Z,1.00
2024-01-21T05:32:55.877Z,1.01
2024-01-21T05:33:47.521Z,1.03
2024-01-21T05:34:46.677Z,1.06
2024-01-21T05:35:48.881Z,1.08
2024-01-21T05:36:47.287Z,1.10
2024-01-21T05:37:50.509Z,1.12
2024-01-21T05:38:46.998Z,1.16
2024-01-21T05:39:50.234Z,1.19
2024-01-21T05:40:47.588Z,1.24
2024-01-21T05:41:48.688Z,1.26
2024-01-21T05:42:48.032Z,1.29
2024-01-21T05:43:49.221Z,1.32
2024-01-21T05:44:46.726Z,1.34
2024-01-21T05:45:47.327Z,1.36
2024-01-21T05:46:47.367Z,1.34
2024-01-21T05:47:47.265Z,1.36
2024-01-21T05:48:51.402Z,1.34
2024-01-21T05:49:49.269Z,1.34
2024-01-21T05:50:47.472Z,1.34
2024-01-21T05:51:46.316Z,1.36
2024-01-21T05:52:47.255Z,1.34
2024-01-21T05:53:46.267Z,1.34
2024-01-21T05:54:47.981Z,1.37
2024-01-21T05:55:46.221Z,1.39
2024-01-21T05:56:50.223Z,1.42
2024-01-21T05:57:49.158Z,1.43
2024-01-21T05:58:48.582Z,1.44
2024-01-21T05:59:47.185Z,1.44
2024-01-21T06:00:47.028Z,1.43
2024-01-21T06:01:48.455Z,1.43
2024-01-21T06:02:47.095Z,1.42
2024-01-21T06:03:51.774Z,1.43
2024-01-21T06:04:46.952Z,1.43
2024-01-21T06:05:47.370Z,1.42
2024-01-21T06:06:46.077Z,1.42
2024-01-21T06:08:11.504Z,1.42
2024-01-21T06:08:48.105Z,1.43
2024-01-21T06:09:46.433Z,1.42
2024-01-21T06:10:51.182Z,1.44
2024-01-21T06:11:47.024Z,1.47
2024-01-21T06:12:48.443Z,1.46
2024-01-21T06:13:50.890Z,1.46
2024-01-21T06:14:49.233Z,1.46
2024-01-21T06:15:53.649Z,1.46
2024-01-21T06:16:53.311Z,1.43
2024-01-21T06:17:46.486Z,1.43
2024-01-21T06:19:08.185Z,1.46
2024-01-21T06:19:47.410Z,1.44
2024-01-21T06:20:48.288Z,1.47
2024-01-21T06:21:47.446Z,1.55
2024-01-21T06:22:48.679Z,1.61
2024-01-21T06:23:47.035Z,1.62
2024-01-21T06:24:50.319Z,1.69
2024-01-21T06:25:45.906Z,1.71
2024-01-21T06:26:52.009Z,1.72
2024-01-21T06:27:47.564Z,1.75
2024-01-21T06:28:45.964Z,1.78
2024-01-21T06:29:46.110Z,1.80
2024-01-21T06:30:46.317Z,1.82
2024-01-21T06:31:45.718Z,1.79
2024-01-21T06:32:53.953Z,1.76
2024-01-21T06:33:47.826Z,1.73
2024-01-21T06:34:45.706Z,1.68
2024-01-21T06:35:45.608Z,1.64
2024-01-21T06:36:45.802Z,1.61
2024-01-21T06:37:45.618Z,1.61
2024-01-21T06:38:45.639Z,1.61
2024-01-21T06:39:54.622Z,1.62
2024-01-21T06:40:46.493Z,1.61
2024-01-21T06:41:45.470Z,1.60
2024-01-21T06:42:45.509Z,1.58
2024-01-21T06:43:45.437Z,1.58
2024-01-21T06:44:45.407Z,1.62
2024-01-21T06:45:45.479Z,1.68
2024-01-21T06:46:45.400Z,1.69
2024-01-21T06:47:45.618Z,1.71
2024-01-21T06:48:45.483Z,1.72
2024-01-21T06:49:45.382Z,1.73
2024-01-21T06:50:45.365Z,1.73
2024-01-21T06:51:45.356Z,1.73
2024-01-21T06:52:45.332Z,1.76
2024-01-21T06:53:45.349Z,1.80
2024-01-21T06:54:45.395Z,1.80
2024-01-21T06:55:45.280Z,1.82
2024-01-21T06:56:45.267Z,1.80
2024-01-21T06:57:45.330Z,1.79
2024-01-21T06:58:45.229Z,1.78
2024-01-21T06:59:45.220Z,1.73
2024-01-21T07:00:45.310Z,1.71
2024-01-21T07:01:45.203Z,1.68
2024-01-21T07:02:45.157Z,1.71
2024-01-21T07:03:45.180Z,1.75
2024-01-21T07:04:45.161Z,1.76
2024-01-21T07:05:45.218Z,1.78
2024-01-21T07:06:45.265Z,1.83
2024-01-21T07:07:45.772Z,1.87
2024-01-21T07:08:45.104Z,1.91
2024-01-21T07:09:45.179Z,1.94
2024-01-21T07:10:45.073Z,1.93
2024-01-21T07:11:45.120Z,1.91
2024-01-21T07:12:45.063Z,1.91
2024-01-21T07:13:45.063Z,1.89
2024-01-21T07:14:44.994Z,1.91
2024-01-21T07:15:45.115Z,1.93
2024-01-21T07:16:44.980Z,1.97
2024-01-21T07:17:45.093Z,1.98
2024-01-21T07:18:45.155Z,1.99
2024-01-21T07:19:45.197Z,1.98
2024-01-21T07:20:45.038Z,1.98
2024-01-21T07:21:44.929Z,1.97
2024-01-21T07:22:44.935Z,1.97
2024-01-21T07:23:44.956Z,1.99
2024-01-21T07:24:44.909Z,1.94
2024-01-21T07:25:44.956Z,1.93
2024-01-21T07:26:44.850Z,1.93
2024-01-21T07:27:45.107Z,1.91
2024-01-21T07:28:44.825Z,1.91
2024-01-21T07:29:45.099Z,1.91
2024-01-21T07:30:44.984Z,1.90
2024-01-21T07:31:44.852Z,1.91
2024-01-21T07:32:44.837Z,1.91
2024-01-21T07:33:44.979Z,1.91
2024-01-21T07:34:44.884Z,1.91
2024-01-21T07:35:44.730Z,1.89
2024-01-21T07:36:44.747Z,1.91
2024-01-21T07:37:44.734Z,1.93
2024-01-21T07:38:44.721Z,1.94
2024-01-21T07:39:44.718Z,1.94
2024-01-21T07:40:44.710Z,1.94
2024-01-21T07:41:44.663Z,1.97
2024-01-21T07:42:44.680Z,1.93
2024-01-21T07:43:44.642Z,1.93
2024-01-21T07:44:44.615Z,1.90
2024-01-21T07:45:44.658Z,1.90
2024-01-21T07:46:44.601Z,1.91
2024-01-21T07:47:44.823Z,1.93
2024-01-21T07:48:44.651Z,1.97
2024-01-21T07:49:44.630Z,1.97
2024-01-21T07:50:44.597Z,1.98
2024-01-21T07:51:44.551Z,1.98
2024-01-21T07:52:44.579Z,1.97
2024-01-21T07:53:44.650Z,1.97
2024-01-21T07:54:45.048Z,1.98
2024-01-21T07:55:44.486Z,1.99
2024-01-21T07:56:44.498Z,1.99
2024-01-21T07:57:44.489Z,1.99
2024-01-21T07:58:44.513Z,1.99
2024-01-21T07:59:44.478Z,2.02
2024-01-21T08:00:44.505Z,2.06
2024-01-21T08:01:44.465Z,2.08
2024-01-21T08:02:44.378Z,2.10
2024-01-21T08:03:44.554Z,2.10
2024-01-21T08:04:44.365Z,2.15
2024-01-21T08:05:44.385Z,2.19
2024-01-21T08:06:44.469Z,2.23
2024-01-21T08:07:44.326Z,2.23
2024-01-21T08:08:44.357Z,2.26
2024-01-21T08:09:44.414Z,2.30
2024-01-21T08:10:44.295Z,2.28
2024-01-21T08:11:44.228Z,2.28
2024-01-21T08:12:44.266Z,2.30
2024-01-21T08:13:44.277Z,2.33
2024-01-21T08:14:44.207Z,2.37
2024-01-21T08:15:44.498Z,2.40
2024-01-21T08:16:44.177Z,2.44
2024-01-21T08:17:44.202Z,2.46
2024-01-21T08:18:44.188Z,2.49
2024-01-21T08:19:44.410Z,2.48
2024-01-21T08:20:44.267Z,2.52
2024-01-21T08:21:44.167Z,2.55
2024-01-21T08:22:44.169Z,2.55
2024-01-21T08:23:44.155Z,2.55
2024-01-21T08:24:44.207Z,2.56
2024-01-21T08:25:44.091Z,2.58
2024-01-21T08:26:44.096Z,2.59
2024-01-21T08:27:44.104Z,2.59
2024-01-21T08:28:44.090Z,2.63
2024-01-21T08:29:44.054Z,2.63
2024-01-21T08:30:44.077Z,2.63
2024-01-21T08:31:44.055Z,2.67
2024-01-21T08:32:44.080Z,2.70
2024-01-21T08:33:44.056Z,2.73
2024-01-21T08:34:44.038Z,2.73
2024-01-21T08:35:43.936Z,2.73
2024-01-21T08:36:43.951Z,2.73
2024-01-21T08:37:43.912Z,2.73
2024-01-21T08:38:43.895Z,2.73
2024-01-21T08:39:46.372Z,2.71
2024-01-21T08:40:43.888Z,2.73
2024-01-21T08:41:43.969Z,2.73
2024-01-21T08:42:43.938Z,2.74
2024-01-21T08:43:43.817Z,2.77
2024-01-21T08:44:43.854Z,2.81
2024-01-21T08:45:43.859Z,2.81
2024-01-21T08:46:43.754Z,2.84
2024-01-21T08:47:43.805Z,2.85
2024-01-21T08:48:43.851Z,2.91
2024-01-21T08:49:45.421Z,2.91
2024-01-21T08:50:43.709Z,2.97
2024-01-21T08:51:43.734Z,2.98
2024-01-21T08:52:44.237Z,3.00
2024-01-21T08:53:43.724Z,3.05
2024-01-21T08:54:43.701Z,3.06
2024-01-21T08:55:43.679Z,3.06
2024-01-21T08:56:43.680Z,3.05
2024-01-21T08:57:43.729Z,3.06
2024-01-21T08:58:43.666Z,3.09
2024-01-21T08:59:43.660Z,3.09
2024-01-21T09:00:43.726Z,3.10
2024-01-21T09:01:43.574Z,3.12
2024-01-21T09:02:43.544Z,3.15
2024-01-21T09:03:43.591Z,3.16
2024-01-21T09:04:43.544Z,3.18
2024-01-21T09:05:43.642Z,3.18
2024-01-21T09:06:43.837Z,3.21
2024-01-21T09:07:43.488Z,3.21
2024-01-21T09:08:43.457Z,3.27
2024-01-21T09:09:43.458Z,3.27
2024-01-21T09:10:43.431Z,3.28
2024-01-21T09:11:43.476Z,3.31
2024-01-21T09:12:43.755Z,3.30
2024-01-21T09:13:43.436Z,3.30
2024-01-21T09:14:43.397Z,3.30
2024-01-21T09:15:43.478Z,3.28
2024-01-21T09:16:43.386Z,3.31
2024-01-21T09:17:43.449Z,3.33
2024-01-21T09:18:43.467Z,3.34
2024-01-21T09:19:43.316Z,3.33
2024-01-21T09:20:43.295Z,3.34
2024-01-21T09:21:43.430Z,3.33
2024-01-21T09:22:43.308Z,3.33
2024-01-21T09:23:43.275Z,3.33
2024-01-21T09:24:43.292Z,3.31
2024-01-21T09:25:43.253Z,3.31
2024-01-21T09:26:43.211Z,3.31
2024-01-21T09:27:43.240Z,3.30
2024-01-21T09:28:43.174Z,3.28
2024-01-21T09:29:43.180Z,3.30
2024-01-21T09:30:43.211Z,3.28
2024-01-21T09:31:43.163Z,3.28
2024-01-21T09:32:43.140Z,3.27
2024-01-21T09:33:43.219Z,3.28
2024-01-21T09:34:43.360Z,3.28
2024-01-21T09:35:44.168Z,3.31
2024-01-21T09:36:43.245Z,3.33
2024-01-21T09:37:43.027Z,3.36
2024-01-21T09:38:43.088Z,3.39
2024-01-21T09:39:43.294Z,3.39
2024-01-21T09:40:43.152Z,3.40
2024-01-21T09:41:43.124Z,3.40
2024-01-21T09:42:43.404Z,3.42
2024-01-21T09:43:43.165Z,3.44
2024-01-21T09:44:43.191Z,3.42
2024-01-21T09:45:43.330Z,3.44
2024-01-21T09:46:43.154Z,3.46
2024-01-21T09:47:43.076Z,3.47
2024-01-21T09:48:43.113Z,3.47
2024-01-21T09:49:43.137Z,3.49
2024-01-21T09:50:42.927Z,3.50
2024-01-21T09:51:43.000Z,3.52
2024-01-21T09:52:43.044Z,3.50
2024-01-21T09:53:42.982Z,3.52
2024-01-21T09:54:43.075Z,3.53
2024-01-21T09:55:42.927Z,3.53
2024-01-21T09:56:42.888Z,3.54
2024-01-21T09:57:43.033Z,3.54
2024-01-21T09:58:43.479Z,3.58
2024-01-21T09:59:43.126Z,3.58
2024-01-21T10:00:43.364Z,3.58
2024-01-21T10:01:42.916Z,3.61
2024-01-21T10:02:42.903Z,3.65
2024-01-21T10:03:42.884Z,3.70
2024-01-21T10:04:43.022Z,3.75
2024-01-21T10:05:42.983Z,3.78
2024-01-21T10:06:43.049Z,3.78
2024-01-21T10:07:42.761Z,3.79
2024-01-21T10:08:42.783Z,3.80
2024-01-21T10:09:42.754Z,3.80
2024-01-21T10:10:42.668Z,3.82
2024-01-21T10:11:43.331Z,3.83
2024-01-21T10:12:42.853Z,3.85
2024-01-21T10:13:42.972Z,3.88
2024-01-21T10:14:42.690Z,3.86
2024-01-21T10:15:42.770Z,3.88
2024-01-21T10:16:42.554Z,3.89
2024-01-21T10:17:42.688Z,3.89
2024-01-21T10:18:42.883Z,3.89
2024-01-21T10:19:42.637Z,3.88
2024-01-21T10:20:42.508Z,3.89
2024-01-21T10:21:42.665Z,3.89
2024-01-21T10:22:42.628Z,3.89
2024-01-21T10:23:42.541Z,3.90
2024-01-21T10:24:42.632Z,3.94
2024-01-21T10:25:42.424Z,3.94
2024-01-21T10:26:42.501Z,3.96
2024-01-21T10:27:42.569Z,3.96
2024-01-21T10:28:42.494Z,3.98
2024-01-21T10:29:42.708Z,3.98
2024-01-21T10:30:42.506Z,3.98
2024-01-21T10:31:42.430Z,4.00
2024-01-21T10:32:42.714Z,4.03
2024-01-21T10:33:43.361Z,4.03
2024-01-21T10:34:42.808Z,4.04
2024-01-21T10:35:42.422Z,4.07
2024-01-21T10:36:42.408Z,4.10
2024-01-21T10:37:43.120Z,4.14
2024-01-21T10:38:42.455Z,4.12
2024-01-21T10:39:42.254Z,4.15
2024-01-21T10:40:42.293Z,4.16
2024-01-21T10:41:42.300Z,4.16
2024-01-21T10:42:42.454Z,4.18
2024-01-21T10:43:42.508Z,4.16
2024-01-21T10:44:42.510Z,4.15
2024-01-21T10:45:42.210Z,4.14
2024-01-21T10:46:42.099Z,4.14
2024-01-21T10:47:42.456Z,4.12
2024-01-21T10:48:42.251Z,4.12
2024-01-21T10:49:42.592Z,4.12
2024-01-21T10:50:42.125Z,4.12
2024-01-21T10:51:42.138Z,4.14
2024-01-21T10:52:42.054Z,4.14
2024-01-21T10:53:42.098Z,4.15
2024-01-21T10:54:42.024Z,4.18
2024-01-21T10:55:42.018Z,4.19
2024-01-21T10:56:41.971Z,4.22
2024-01-21T10:57:42.043Z,4.25
2024-01-21T10:58:41.908Z,4.26
2024-01-21T10:59:41.913Z,4.28
2024-01-21T11:00:42.122Z,4.28
2024-01-21T11:01:42.100Z,4.29
2024-01-21T11:02:42.064Z,4.28
2024-01-21T11:03:42.888Z,4.29
2024-01-21T11:04:42.013Z,4.29
2024-01-21T11:05:41.980Z,4.28
2024-01-21T11:06:41.878Z,4.28
2024-01-21T11:07:41.987Z,4.28
2024-01-21T11:08:42.097Z,4.29
2024-01-21T11:09:41.816Z,4.32
2024-01-21T11:10:41.948Z,4.34
2024-01-21T11:11:41.775Z,4.36
2024-01-21T11:12:41.773Z,4.40
2024-01-21T11:13:41.758Z,4.43
2024-01-21T11:14:41.738Z,4.47
2024-01-21T11:15:42.016Z,4.55
2024-01-21T11:16:42.147Z,4.57
2024-01-21T11:17:41.921Z,4.61
2024-01-21T11:18:42.807Z,4.62
2024-01-21T11:19:41.989Z,4.67
2024-01-21T11:20:41.840Z,4.69
2024-01-21T11:21:42.782Z,4.72
2024-01-21T11:22:41.925Z,4.72
2024-01-21T11:23:41.833Z,4.73
2024-01-21T11:24:41.830Z,4.75
2024-01-21T11:25:41.994Z,4.76
2024-01-21T11:26:41.865Z,4.76
2024-01-21T11:27:41.988Z,4.76
2024-01-21T11:28:41.823Z,4.73
2024-01-21T11:29:41.952Z,4.73
2024-01-21T11:30:41.770Z,4.69
2024-01-21T11:31:41.696Z,4.69
2024-01-21T11:32:41.720Z,4.69
2024-01-21T11:33:45.141Z,4.67
2024-01-21T11:34:41.752Z,4.67
2024-01-21T11:35:41.617Z,4.67
2024-01-21T11:36:41.660Z,4.69
2024-01-21T11:37:41.434Z,4.69
2024-01-21T11:38:41.524Z,4.70
2024-01-21T11:39:41.493Z,4.75
2024-01-21T11:40:41.396Z,4.79
2024-01-21T11:41:41.380Z,4.80
2024-01-21T11:42:41.361Z,4.79
2024-01-21T11:43:41.350Z,4.80
2024-01-21T11:44:41.451Z,4.80
2024-01-21T11:45:41.386Z,4.79
2024-01-21T11:46:41.472Z,4.80
2024-01-21T11:47:41.385Z,4.83
2024-01-21T11:48:41.361Z,4.83
2024-01-21T11:49:41.382Z,4.80
2024-01-21T11:50:41.205Z,4.80
2024-01-21T11:51:41.290Z,4.84
2024-01-21T11:52:41.513Z,4.80
2024-01-21T11:53:41.236Z,4.79
2024-01-21T11:54:41.276Z,4.76
2024-01-21T11:55:42.047Z,4.77
2024-01-21T11:56:43.869Z,4.76
2024-01-21T11:57:42.405Z,4.79
2024-01-21T11:58:41.106Z,4.79
2024-01-21T11:59:41.155Z,4.80
2024-01-21T12:00:41.170Z,4.86
2024-01-21T12:01:41.309Z,4.94
2024-01-21T12:02:41.443Z,4.96
2024-01-21T12:03:41.152Z,4.94
2024-01-21T12:04:41.059Z,4.89
2024-01-21T12:05:41.348Z,4.83
2024-01-21T12:06:41.240Z,4.84
2024-01-21T12:07:41.156Z,4.88
2024-01-21T12:08:41.214Z,4.89
2024-01-21T12:09:41.159Z,4.94
2024-01-21T12:10:40.955Z,4.94
2024-01-21T12:11:41.002Z,4.94
2024-01-21T12:12:41.367Z,4.94
2024-01-21T12:13:40.990Z,4.94
2024-01-21T12:14:41.063Z,4.95
2024-01-21T12:15:41.054Z,4.98
2024-01-21T12:16:40.959Z,5.01
2024-01-21T12:17:40.941Z,5.01
2024-01-21T12:18:41.580Z,5.02
2024-01-21T12:19:40.971Z,5.07
2024-01-21T12:20:40.909Z,5.10
2024-01-21T12:21:41.732Z,5.12
2024-01-21T12:22:41.422Z,5.12
2024-01-21T12:23:41.462Z,5.12
2024-01-21T12:24:40.863Z,5.14
2024-01-21T12:25:42.134Z,5.14
2024-01-21T12:26:40.902Z,5.16
2024-01-21T12:27:41.195Z,5.20
2024-01-21T12:28:40.704Z,5.25
2024-01-21T12:29:40.711Z,5.31
2024-01-21T12:30:41.058Z,5.35
2024-01-21T12:31:40.645Z,5.41
2024-01-21T12:32:46.992Z,5.43
2024-01-21T12:33:41.745Z,5.50
2024-01-21T12:34:40.928Z,5.55
2024-01-21T12:35:40.642Z,5.55
2024-01-21T12:36:40.991Z,5.63
2024-01-21T12:37:40.673Z,5.68
2024-01-21T12:38:40.570Z,5.78
2024-01-21T12:39:40.632Z,5.85
2024-01-21T12:40:40.601Z,5.88
2024-01-21T12:41:40.664Z,5.88
2024-01-21T12:42:40.764Z,5.83
2024-01-21T12:43:40.489Z,5.81
2024-01-21T12:44:40.669Z,5.75
2024-01-21T12:45:40.446Z,5.74
2024-01-21T12:46:40.454Z,5.67
2024-01-21T12:47:40.478Z,5.66
2024-01-21T12:48:40.559Z,5.66
2024-01-21T12:49:40.476Z,5.66
2024-01-21T12:50:40.479Z,5.70
2024-01-21T12:51:40.417Z,5.71
2024-01-21T12:52:40.356Z,5.77
2024-01-21T12:53:40.663Z,5.82
2024-01-21T12:54:40.349Z,5.88
2024-01-21T12:55:40.349Z,5.92
2024-01-21T12:56:40.505Z,5.91
2024-01-21T12:57:47.109Z,5.92
2024-01-21T12:58:40.596Z,5.86
2024-01-21T12:59:40.468Z,5.81
2024-01-21T13:00:40.569Z,5.77
2024-01-21T13:01:40.355Z,5.77
2024-01-21T13:02:40.492Z,5.70
2024-01-21T13:03:40.513Z,5.66
2024-01-21T13:04:40.322Z,5.63
2024-01-21T13:05:40.716Z,5.59
2024-01-21T13:06:40.620Z,5.63
2024-01-21T13:07:40.437Z,5.59
2024-01-21T13:08:40.318Z,5.63
2024-01-21T13:09:40.441Z,5.63
2024-01-21T13:10:40.494Z,5.63
2024-01-21T13:11:40.146Z,5.64
2024-01-21T13:12:40.353Z,5.66
2024-01-21T13:13:40.154Z,5.73
2024-01-21T13:14:40.164Z,5.73
2024-01-21T13:15:40.118Z,5.81